createdAt,value
2017-07-11T00:02:19.792Z,2.37
2017-07-11T00:04:46.142Z,2.30
2017-07-11T00:07:12.527Z,2.50
2017-07-11T00:09:39.594Z,2.33
2017-07-11T00:12:05.942Z,2.40
2017-07-11T00:14:32.333Z,3.20
2017-07-11T00:16:59.382Z,2.20
2017-07-11T00:19:25.742Z,2.73
2017-07-11T00:21:52.155Z,2.60
2017-07-11T00:24:19.335Z,2.50
2017-07-11T00:26:45.682Z,2.80
2017-07-11T00:29:12.077Z,3.10
2017-07-11T00:31:38.480Z,3.17
2017-07-11T00:34:04.875Z,2.47
2017-07-11T00:36:31.248Z,2.83
2017-07-11T00:38:57.603Z,2.70
2017-07-11T00:41:23.954Z,2.90
2017-07-11T00:43:50.364Z,3.70
2017-07-11T00:46:16.703Z,3.00
2017-07-11T00:48:43.061Z,2.93
2017-07-11T00:51:09.418Z,3.60
2017-07-11T00:53:36.531Z,3.77
2017-07-11T00:56:02.892Z,3.20
2017-07-11T00:58:36.249Z,2.53
2017-07-11T01:01:02.576Z,2.80
2017-07-11T01:03:28.942Z,2.93
2017-07-11T01:05:55.330Z,2.73
2017-07-11T01:08:21.665Z,2.83
2017-07-11T01:10:47.996Z,3.07
2017-07-11T01:13:14.374Z,2.90
2017-07-11T01:15:40.790Z,2.63
2017-07-11T01:18:07.914Z,2.83
2017-07-11T01:20:34.273Z,3.10
2017-07-11T01:23:01.381Z,3.07
2017-07-11T01:25:28.478Z,2.93
2017-07-11T01:27:54.867Z,2.60
2017-07-11T01:30:21.272Z,3.20
2017-07-11T01:32:47.640Z,2.53
2017-07-11T01:35:13.942Z,2.73
2017-07-11T01:37:40.296Z,2.30
2017-07-11T01:40:06.711Z,2.47
2017-07-11T01:42:33.054Z,2.60
2017-07-11T01:44:59.463Z,2.43
2017-07-11T01:47:25.859Z,2.20
2017-07-11T01:49:52.227Z,2.40
2017-07-11T01:52:18.608Z,2.53
2017-07-11T01:54:45.028Z,2.07
2017-07-11T01:57:12.150Z,2.10
2017-07-11T01:59:38.508Z,2.73
2017-07-11T02:02:04.903Z,2.10
2017-07-11T02:04:31.292Z,2.10
2017-07-11T02:06:57.694Z,2.40
2017-07-11T02:09:24.134Z,2.17
2017-07-11T02:11:51.201Z,2.00
2017-07-11T02:14:17.565Z,1.97
2017-07-11T02:16:43.890Z,1.90
2017-07-11T02:19:10.268Z,1.70
2017-07-11T02:21:36.655Z,1.77
2017-07-11T02:24:03.012Z,1.63
2017-07-11T02:26:29.355Z,1.47
2017-07-11T02:28:56.431Z,1.80
2017-07-11T02:31:22.779Z,1.93
2017-07-11T02:33:49.180Z,1.60
2017-07-11T02:36:15.595Z,1.50
2017-07-11T02:38:42.662Z,1.80
2017-07-11T02:41:09.017Z,1.67
2017-07-11T02:43:35.360Z,1.70
2017-07-11T02:46:01.684Z,1.50
2017-07-11T02:48:28.035Z,1.97
2017-07-11T02:50:54.410Z,1.77
2017-07-11T02:53:20.751Z,1.40
2017-07-11T02:55:47.150Z,1.53
2017-07-11T02:58:13.492Z,1.87
2017-07-11T03:00:39.828Z,2.00
2017-07-11T03:03:06.199Z,2.20
2017-07-11T03:05:32.556Z,2.30
2017-07-11T03:07:59.636Z,2.00
2017-07-11T03:10:26.049Z,2.50
2017-07-11T03:12:52.391Z,2.27
2017-07-11T03:15:18.739Z,2.00
2017-07-11T03:17:45.059Z,2.03
2017-07-11T03:20:11.471Z,2.00
2017-07-11T03:22:37.810Z,1.70
2017-07-11T03:25:04.167Z,1.67
2017-07-11T03:27:30.502Z,1.80
2017-07-11T03:29:57.649Z,2.23
2017-07-11T03:32:23.996Z,2.10
2017-07-11T03:34:50.388Z,2.20
2017-07-11T03:37:16.878Z,2.30
2017-07-11T03:39:43.987Z,1.93
2017-07-11T03:42:10.329Z,2.13
2017-07-11T03:44:37.075Z,2.00
2017-07-11T03:47:03.406Z,1.83
2017-07-11T03:49:29.736Z,1.60
2017-07-11T03:51:56.153Z,2.47
2017-07-11T03:54:22.511Z,1.77
2017-07-11T03:56:49.596Z,2.40
2017-07-11T03:59:15.935Z,1.77
2017-07-11T04:01:42.262Z,2.07
2017-07-11T04:04:08.638Z,2.00
2017-07-11T04:06:34.968Z,2.67
2017-07-11T04:09:02.089Z,2.73
2017-07-11T04:11:28.479Z,2.07
2017-07-11T04:13:54.879Z,1.93
2017-07-11T04:16:21.982Z,1.90
2017-07-11T04:18:48.301Z,2.20
2017-07-11T04:21:14.664Z,2.50
2017-07-11T04:23:41.051Z,2.17
2017-07-11T04:26:07.385Z,2.07
2017-07-11T04:28:33.733Z,1.87
2017-07-11T04:31:00.111Z,2.10
2017-07-11T04:33:26.440Z,2.10
2017-07-11T04:35:52.884Z,1.87
2017-07-11T04:38:19.264Z,1.83
2017-07-11T04:40:45.605Z,1.73
2017-07-11T04:43:12.031Z,1.90
2017-07-11T04:45:38.385Z,1.60
2017-07-11T04:48:05.672Z,1.73
2017-07-11T04:50:32.838Z,2.07
2017-07-11T04:52:59.167Z,1.33
2017-07-11T04:55:25.512Z,2.00
2017-07-11T04:57:51.834Z,2.07
2017-07-11T05:00:18.207Z,1.50
2017-07-11T05:02:45.324Z,1.70
2017-07-11T05:05:11.702Z,2.30
2017-07-11T05:07:38.029Z,1.30
2017-07-11T05:10:04.381Z,1.57
2017-07-11T05:12:30.777Z,1.63
2017-07-11T05:14:57.857Z,1.40
2017-07-11T05:17:24.258Z,1.50
2017-07-11T05:19:50.615Z,1.77
2017-07-11T05:22:16.996Z,1.57
2017-07-11T05:24:44.106Z,1.10
2017-07-11T05:27:16.413Z,1.80
2017-07-11T05:29:42.783Z,1.40
2017-07-11T05:32:09.177Z,1.63
2017-07-11T05:34:36.247Z,1.77
2017-07-11T05:37:02.677Z,1.70
2017-07-11T05:39:29.030Z,1.60
2017-07-11T05:41:55.400Z,1.60
2017-07-11T05:44:21.742Z,1.50
2017-07-11T05:46:48.853Z,1.77
2017-07-11T05:49:15.210Z,1.13
2017-07-11T05:51:41.455Z,1.60
2017-07-11T05:54:07.808Z,1.43
2017-07-11T05:56:34.159Z,1.40
2017-07-11T05:59:00.542Z,1.90
2017-07-11T06:01:26.990Z,1.80
2017-07-11T06:03:53.327Z,1.53
2017-07-11T06:06:20.019Z,1.63
2017-07-11T06:08:46.367Z,2.00
2017-07-11T06:11:13.439Z,1.43
2017-07-11T06:13:39.868Z,1.53
2017-07-11T06:16:06.233Z,1.80
2017-07-11T06:18:32.578Z,1.60
2017-07-11T06:20:58.889Z,1.53
2017-07-11T06:23:25.234Z,2.03
2017-07-11T06:25:51.559Z,1.70
2017-07-11T06:28:17.907Z,1.87
2017-07-11T06:30:44.488Z,1.60
2017-07-11T06:33:10.831Z,1.80
2017-07-11T06:35:37.182Z,1.60
2017-07-11T06:38:03.588Z,2.03
2017-07-11T06:40:31.345Z,1.83
2017-07-11T06:42:57.731Z,2.10
2017-07-11T06:45:24.833Z,2.30
2017-07-11T06:47:51.158Z,2.13
2017-07-11T06:50:17.508Z,1.67
2017-07-11T06:52:43.842Z,1.90
2017-07-11T06:55:10.184Z,1.70
2017-07-11T06:57:36.508Z,1.87
2017-07-11T07:00:02.861Z,1.63
2017-07-11T07:02:29.259Z,2.13
2017-07-11T07:04:55.621Z,1.33
2017-07-11T07:07:22.737Z,1.70
2017-07-11T07:09:49.049Z,2.10
2017-07-11T07:12:15.417Z,1.80
2017-07-11T07:14:42.539Z,2.30
2017-07-11T07:17:08.909Z,1.93
2017-07-11T07:19:35.267Z,1.87
2017-07-11T07:22:01.657Z,1.53
2017-07-11T07:24:28.715Z,1.70
2017-07-11T07:26:55.077Z,1.97
2017-07-11T07:29:21.434Z,1.70
2017-07-11T07:31:47.782Z,2.00
2017-07-11T07:34:14.135Z,2.10
2017-07-11T07:36:40.577Z,1.70
2017-07-11T07:39:06.942Z,1.83
2017-07-11T07:41:33.297Z,1.90
2017-07-11T07:43:59.664Z,2.00
2017-07-11T07:46:26.014Z,1.83
2017-07-11T07:48:52.356Z,1.90
2017-07-11T07:51:22.828Z,1.53
2017-07-11T07:53:50.908Z,1.70
2017-07-11T07:56:17.249Z,1.70
2017-07-11T07:58:43.610Z,2.10
2017-07-11T08:01:10.082Z,1.90
2017-07-11T08:03:37.198Z,1.90
2017-07-11T08:06:03.525Z,2.00
2017-07-11T08:08:30.104Z,1.93
2017-07-11T08:10:57.192Z,1.80
2017-07-11T08:13:23.561Z,1.90
2017-07-11T08:15:49.871Z,1.70
2017-07-11T08:18:16.223Z,1.70
2017-07-11T08:20:42.527Z,2.00
2017-07-11T08:23:08.858Z,1.90
2017-07-11T08:25:35.214Z,1.67
2017-07-11T08:28:02.654Z,1.70
2017-07-11T08:30:29.027Z,1.60
2017-07-11T08:32:55.375Z,2.10
2017-07-11T08:35:21.746Z,1.57
2017-07-11T08:37:48.141Z,1.80
2017-07-11T08:40:14.539Z,1.60
2017-07-11T08:42:40.933Z,1.73
2017-07-11T08:45:07.362Z,1.57
2017-07-11T08:47:33.694Z,2.20
2017-07-11T08:50:00.041Z,1.57
2017-07-11T08:52:26.399Z,1.80
2017-07-11T08:54:52.804Z,1.40
2017-07-11T08:57:19.896Z,0.90
2017-07-11T08:59:46.275Z,1.17
2017-07-11T09:02:13.387Z,1.40
2017-07-11T09:04:39.748Z,1.63
2017-07-11T09:07:12.974Z,1.40
2017-07-11T09:09:39.350Z,1.60
2017-07-11T09:12:05.775Z,1.67
2017-07-11T09:14:32.139Z,1.33
2017-07-11T09:16:58.859Z,1.20
2017-07-11T09:19:25.269Z,1.30
2017-07-11T09:21:51.646Z,1.40
2017-07-11T09:24:19.777Z,1.67
2017-07-11T09:26:46.130Z,1.53
2017-07-11T09:29:13.285Z,1.47
2017-07-11T09:31:39.628Z,1.43
2017-07-11T09:34:06.024Z,1.40
2017-07-11T09:36:33.196Z,1.70
2017-07-11T09:39:00.492Z,1.27
2017-07-11T09:41:26.863Z,1.40
2017-07-11T09:43:54.031Z,1.50
2017-07-11T09:46:20.563Z,1.80
2017-07-11T09:48:46.915Z,1.37
2017-07-11T09:51:13.252Z,1.37
2017-07-11T09:53:39.667Z,1.27
2017-07-11T09:56:06.041Z,1.47
2017-07-11T09:58:33.240Z,1.63
2017-07-11T10:01:00.071Z,1.47
2017-07-11T10:03:26.489Z,0.87
2017-07-11T10:05:52.855Z,1.70
2017-07-11T10:08:19.225Z,1.57
2017-07-11T10:13:45.952Z,1.50
2017-07-11T10:16:12.352Z,1.30
2017-07-11T10:18:38.705Z,1.40
2017-07-11T10:21:05.199Z,1.00
2017-07-11T10:23:32.398Z,1.30
2017-07-11T10:25:58.769Z,1.37
2017-07-11T10:28:25.097Z,1.20
2017-07-11T10:30:51.554Z,1.20
2017-07-11T10:33:18.092Z,1.80
2017-07-11T10:35:44.460Z,1.27
2017-07-11T10:38:10.978Z,1.07
2017-07-11T10:40:37.603Z,1.00
2017-07-11T10:43:03.939Z,0.97
2017-07-11T10:45:30.341Z,0.90
2017-07-11T10:47:57.464Z,1.07
2017-07-11T10:50:24.575Z,1.20
2017-07-11T10:52:51.031Z,1.13
2017-07-11T10:55:17.575Z,1.00
2017-07-11T10:57:43.983Z,1.00
2017-07-11T11:00:10.377Z,1.20
2017-07-11T11:02:36.899Z,1.00
2017-07-11T11:05:03.391Z,1.10
2017-07-11T11:07:29.786Z,1.23
2017-07-11T11:09:56.159Z,1.10
2017-07-11T11:12:22.507Z,1.03
2017-07-11T11:14:49.620Z,1.17
2017-07-11T11:17:16.024Z,1.73
2017-07-11T11:19:42.403Z,1.00
2017-07-11T11:22:08.751Z,1.30
2017-07-11T11:24:35.143Z,1.53
2017-07-11T11:27:01.516Z,1.40
2017-07-11T11:29:28.621Z,1.37
2017-07-11T11:31:54.982Z,1.10
2017-07-11T11:34:21.390Z,0.90
2017-07-11T11:36:47.738Z,0.93
2017-07-11T11:39:14.951Z,1.07
2017-07-11T11:41:41.311Z,1.03
2017-07-11T11:44:07.706Z,1.17
2017-07-11T11:46:34.172Z,1.40
2017-07-11T11:49:00.656Z,1.27
2017-07-11T11:51:27.058Z,0.97
2017-07-11T11:53:54.349Z,0.90
2017-07-11T11:56:20.776Z,1.07
2017-07-11T11:58:47.169Z,1.40
2017-07-11T12:01:13.550Z,1.17
2017-07-11T12:03:39.978Z,0.93
2017-07-11T12:06:06.368Z,1.20
2017-07-11T12:08:32.770Z,0.80
2017-07-11T12:10:59.870Z,1.20
2017-07-11T12:13:26.260Z,1.13
2017-07-11T12:15:53.403Z,1.17
2017-07-11T12:18:19.757Z,1.00
2017-07-11T12:20:46.324Z,1.00
2017-07-11T12:23:12.789Z,1.07
2017-07-11T12:25:39.944Z,1.00
2017-07-11T12:28:06.365Z,1.00
2017-07-11T12:30:32.801Z,0.97
2017-07-11T12:32:59.194Z,1.07
2017-07-11T12:35:25.641Z,0.80
2017-07-11T12:37:52.050Z,1.00
2017-07-11T12:40:18.473Z,0.80
2017-07-11T12:45:18.120Z,1.10
2017-07-11T12:47:44.565Z,0.70
2017-07-11T12:50:10.901Z,1.10
2017-07-11T12:52:37.335Z,0.80
2017-07-11T12:55:03.700Z,0.80
2017-07-11T12:57:30.117Z,1.00
2017-07-11T12:59:57.228Z,1.00
2017-07-11T13:02:23.647Z,0.90
2017-07-11T13:04:49.994Z,0.87
2017-07-11T13:07:16.358Z,1.00
2017-07-11T13:09:43.460Z,0.90
2017-07-11T13:12:09.853Z,1.00
2017-07-11T13:14:36.254Z,1.10
2017-07-11T13:17:02.636Z,1.20
2017-07-11T13:19:29.021Z,1.00
2017-07-11T13:21:55.458Z,0.80
2017-07-11T13:24:21.843Z,1.10
2017-07-11T13:26:48.252Z,0.90
2017-07-11T13:29:14.626Z,1.07
2017-07-11T13:31:40.977Z,0.90
2017-07-11T13:34:07.269Z,1.20
2017-07-11T13:36:33.609Z,1.10
2017-07-11T13:39:00.815Z,1.10
2017-07-11T13:41:27.168Z,0.90
2017-07-11T13:43:53.515Z,1.47
2017-07-11T13:46:19.883Z,1.50
2017-07-11T13:48:46.245Z,1.20
2017-07-11T13:51:12.628Z,1.00
2017-07-11T13:53:39.045Z,1.00
2017-07-11T13:56:06.128Z,1.10
2017-07-11T13:58:32.586Z,1.00
2017-07-11T14:00:58.921Z,1.00
2017-07-11T14:03:25.551Z,1.50
2017-07-11T14:05:51.920Z,1.00
2017-07-11T14:08:18.259Z,0.70
2017-07-11T14:10:44.636Z,0.93
2017-07-11T14:13:11.131Z,1.00
2017-07-11T14:15:37.543Z,1.20
2017-07-11T14:18:04.688Z,0.80
2017-07-11T14:20:31.766Z,1.30
2017-07-11T14:22:58.182Z,1.10
2017-07-11T14:25:24.557Z,1.07
2017-07-11T14:27:50.936Z,1.20
2017-07-11T14:30:17.271Z,0.90
2017-07-11T14:32:43.629Z,1.13
2017-07-11T14:35:10.014Z,1.00
2017-07-11T14:37:37.304Z,1.00
2017-07-11T14:40:18.689Z,1.40
2017-07-11T14:42:45.153Z,1.10
2017-07-11T14:45:11.515Z,1.00
2017-07-11T14:47:38.590Z,1.20
2017-07-11T14:50:04.982Z,1.70
2017-07-11T14:52:31.365Z,1.30
2017-07-11T14:54:57.747Z,1.30
2017-07-11T14:57:24.149Z,0.97
2017-07-11T14:59:50.510Z,1.03
2017-07-11T15:02:16.890Z,1.00
2017-07-11T15:04:43.266Z,1.00
2017-07-11T15:07:10.364Z,1.30
2017-07-11T15:09:36.756Z,1.20
2017-07-11T15:12:03.165Z,1.00
2017-07-11T15:14:29.592Z,0.97
2017-07-11T15:16:56.099Z,1.17
2017-07-11T15:19:22.529Z,1.13
2017-07-11T15:21:48.929Z,1.17
2017-07-11T15:24:15.333Z,0.80
2017-07-11T15:26:41.733Z,0.77
2017-07-11T15:29:08.234Z,1.10
2017-07-11T15:31:34.904Z,0.80
2017-07-11T15:34:01.290Z,1.13
2017-07-11T15:36:27.676Z,1.03
2017-07-11T15:38:54.702Z,1.00
2017-07-11T15:41:21.079Z,1.00
2017-07-11T15:43:47.428Z,1.03
2017-07-11T15:46:13.811Z,0.90
2017-07-11T15:48:40.288Z,1.40
2017-07-11T15:51:06.682Z,1.10
2017-07-11T15:53:34.150Z,1.00
2017-07-11T15:56:01.333Z,1.30
2017-07-11T15:58:27.733Z,1.17
2017-07-11T16:00:54.799Z,1.00
2017-07-11T16:03:21.190Z,1.60
2017-07-11T16:05:47.537Z,1.13
2017-07-11T16:08:14.625Z,1.17
2017-07-11T16:10:40.974Z,1.20
2017-07-11T16:13:07.339Z,1.00
2017-07-11T16:15:34.430Z,1.03
2017-07-11T16:18:00.812Z,1.20
2017-07-11T16:20:27.993Z,1.03
2017-07-11T16:22:54.374Z,1.00
2017-07-11T16:25:20.719Z,0.93
2017-07-11T16:27:47.873Z,1.10
2017-07-11T16:30:14.956Z,1.00
2017-07-11T16:32:41.359Z,1.27
2017-07-11T16:35:08.451Z,0.90
2017-07-11T16:37:34.839Z,0.77
2017-07-11T16:40:01.306Z,0.90
2017-07-11T16:42:27.652Z,1.23
2017-07-11T16:44:54.060Z,1.30
2017-07-11T16:47:20.469Z,0.90
2017-07-11T16:49:47.655Z,1.00
2017-07-11T16:52:14.096Z,1.17
2017-07-11T16:54:40.496Z,1.13
2017-07-11T16:57:06.822Z,1.13
2017-07-11T16:59:33.231Z,1.20
2017-07-11T17:01:59.587Z,1.30
2017-07-11T17:04:26.331Z,1.30
2017-07-11T17:06:52.682Z,1.40
2017-07-11T17:09:19.035Z,1.00
2017-07-11T17:14:18.374Z,1.37
2017-07-11T17:16:44.737Z,1.57
2017-07-11T17:19:11.111Z,1.80
2017-07-11T17:21:38.229Z,1.43
2017-07-11T17:24:04.632Z,1.63
2017-07-11T17:26:30.992Z,1.30
2017-07-11T17:28:57.360Z,1.40
2017-07-11T17:31:24.461Z,1.70
2017-07-11T17:33:50.853Z,1.73
2017-07-11T17:36:17.338Z,1.50
2017-07-11T17:38:44.207Z,1.53
2017-07-11T17:41:11.308Z,1.70
2017-07-11T17:43:37.699Z,2.10
2017-07-11T17:46:04.103Z,1.77
2017-07-11T17:48:30.470Z,1.60
2017-07-11T17:50:56.867Z,1.80
2017-07-11T17:53:23.266Z,1.80
2017-07-11T17:55:49.650Z,1.70
2017-07-11T17:58:16.782Z,1.43
2017-07-11T18:00:43.148Z,1.70
2017-07-11T18:03:09.518Z,1.47
2017-07-11T18:05:35.892Z,2.30
2017-07-11T18:08:02.253Z,2.53
2017-07-11T18:10:28.644Z,2.20
2017-07-11T18:12:55.014Z,2.13
2017-07-11T18:15:21.408Z,1.80
2017-07-11T18:17:48.497Z,2.00
2017-07-11T18:20:14.905Z,2.07
2017-07-11T18:22:41.289Z,2.27
2017-07-11T18:25:08.415Z,2.87
2017-07-11T18:27:34.821Z,3.17
2017-07-11T18:30:01.254Z,2.00
2017-07-11T18:32:27.699Z,2.30
2017-07-11T18:34:54.071Z,2.50
2017-07-11T18:37:21.191Z,2.73
2017-07-11T18:39:47.715Z,3.40
2017-07-11T18:42:14.186Z,2.90
2017-07-11T18:44:41.295Z,2.50
2017-07-11T18:47:07.728Z,2.53
2017-07-11T18:49:34.138Z,2.80
2017-07-11T18:52:00.679Z,2.67
2017-07-11T18:54:28.119Z,3.10
2017-07-11T18:56:54.542Z,3.00
2017-07-11T18:59:20.939Z,2.60
2017-07-11T19:01:47.358Z,2.63
2017-07-11T19:04:13.823Z,2.93
2017-07-11T19:06:40.286Z,3.10
2017-07-11T19:09:06.688Z,4.13
2017-07-11T19:11:33.085Z,2.97
2017-07-11T19:13:59.767Z,3.37
2017-07-11T19:16:26.236Z,2.80
2017-07-11T19:18:52.703Z,4.40
2017-07-11T19:21:19.200Z,3.10
2017-07-11T19:23:45.650Z,4.37
2017-07-11T19:26:12.276Z,4.93
2017-07-11T19:28:38.716Z,3.00
2017-07-11T19:31:05.091Z,4.40
2017-07-11T19:33:31.591Z,3.97
2017-07-11T19:35:57.993Z,2.50
2017-07-11T19:38:24.412Z,3.60
2017-07-11T19:40:50.978Z,3.30
2017-07-11T19:43:18.133Z,3.97
2017-07-11T19:45:45.562Z,2.83
2017-07-11T19:48:12.076Z,2.30
2017-07-11T19:50:38.499Z,2.10
2017-07-11T19:53:04.921Z,2.20
2017-07-11T19:55:31.295Z,2.13
2017-07-11T19:57:57.729Z,1.73
2017-07-11T20:00:24.288Z,2.20
2017-07-11T20:02:50.913Z,2.03
2017-07-11T20:05:18.441Z,2.03
2017-07-11T20:07:44.923Z,2.27
2017-07-11T20:10:11.328Z,1.57
2017-07-11T20:12:38.519Z,2.13
2017-07-11T20:15:05.066Z,1.87
2017-07-11T20:17:31.462Z,2.80
2017-07-11T20:19:57.911Z,3.00
2017-07-11T20:22:24.325Z,2.53
2017-07-11T20:24:50.732Z,2.50
2017-07-11T20:27:17.181Z,2.30
2017-07-11T20:29:43.615Z,2.07
2017-07-11T20:32:10.761Z,2.73
2017-07-11T20:34:37.259Z,2.00
2017-07-11T20:37:06.732Z,2.23
2017-07-11T20:39:33.273Z,2.00
2017-07-11T20:41:59.889Z,2.40
2017-07-11T20:44:26.270Z,1.80
2017-07-11T20:46:53.573Z,2.33
2017-07-11T20:49:20.015Z,2.37
2017-07-11T20:51:46.369Z,2.60
2017-07-11T20:54:13.547Z,2.50
2017-07-11T20:56:39.969Z,2.33
2017-07-11T20:59:06.439Z,2.30
2017-07-11T21:01:32.847Z,2.50
2017-07-11T21:03:59.204Z,2.50
2017-07-11T21:06:25.639Z,2.80
2017-07-11T21:08:52.007Z,2.77
2017-07-11T21:11:18.365Z,2.57
2017-07-11T21:13:44.753Z,2.27
2017-07-11T21:16:11.087Z,2.83
2017-07-11T21:18:37.457Z,2.70
2017-07-11T21:21:03.851Z,3.03
2017-07-11T21:23:30.234Z,2.63
2017-07-11T21:25:56.619Z,3.40
2017-07-11T21:28:23.019Z,3.70
2017-07-11T21:30:49.370Z,3.40
2017-07-11T21:33:15.734Z,2.80
2017-07-11T21:35:42.870Z,3.00
2017-07-11T21:38:09.234Z,3.53
2017-07-11T21:40:35.683Z,2.80
2017-07-11T21:43:02.034Z,3.40
2017-07-11T21:45:28.427Z,3.40
2017-07-11T21:47:55.101Z,3.40
2017-07-11T21:50:21.461Z,3.27
2017-07-11T21:52:47.943Z,3.20
2017-07-11T21:55:14.328Z,3.10
2017-07-11T21:57:41.088Z,3.27
2017-07-11T22:00:07.505Z,3.30
2017-07-11T22:02:34.680Z,3.10
2017-07-11T22:05:01.101Z,3.30
2017-07-11T22:07:28.144Z,3.03
2017-07-11T22:09:54.554Z,3.30
2017-07-11T22:12:24.836Z,2.43
2017-07-11T22:14:51.255Z,2.80
2017-07-11T22:17:17.806Z,2.40
2017-07-11T22:19:44.229Z,2.30
2017-07-11T22:22:17.581Z,2.47
2017-07-11T22:24:44.061Z,2.20
2017-07-11T22:27:11.979Z,3.00
2017-07-11T22:29:38.369Z,2.00
2017-07-11T22:32:04.721Z,2.03
2017-07-11T22:34:31.247Z,2.20
2017-07-11T22:36:57.587Z,2.47
2017-07-11T22:39:24.098Z,2.03
2017-07-11T22:41:50.583Z,2.00
2017-07-11T22:44:16.853Z,2.30
2017-07-11T22:46:43.233Z,1.90
2017-07-11T22:49:09.620Z,2.40
2017-07-11T22:51:35.971Z,1.77
2017-07-11T22:54:03.086Z,2.00
2017-07-11T22:56:29.423Z,1.60
2017-07-11T22:58:55.780Z,1.70
2017-07-11T23:01:22.845Z,1.57
2017-07-11T23:03:49.554Z,1.83
2017-07-11T23:06:15.935Z,1.50
2017-07-11T23:08:42.377Z,1.63
2017-07-11T23:11:08.745Z,2.23
2017-07-11T23:13:35.122Z,2.00
2017-07-11T23:16:01.538Z,2.50
2017-07-11T23:18:27.908Z,2.27
2017-07-11T23:20:54.343Z,2.30
2017-07-11T23:23:21.455Z,2.40
2017-07-11T23:25:47.909Z,2.10
2017-07-11T23:28:14.261Z,2.00
2017-07-11T23:30:41.432Z,2.50
2017-07-11T23:33:07.861Z,2.50
2017-07-11T23:35:34.269Z,2.60
2017-07-11T23:38:00.592Z,2.33
2017-07-11T23:40:27.008Z,2.63
2017-07-11T23:42:53.285Z,2.50
2017-07-11T23:45:20.397Z,2.37
2017-07-11T23:47:46.775Z,2.40
2017-07-11T23:50:13.142Z,2.27
2017-07-11T23:52:39.504Z,2.10
2017-07-11T23:55:05.858Z,2.00
2017-07-11T23:57:32.937Z,2.23
2017-07-11T23:59:59.341Z,2.40
